Time;durP1;ratioP1;P1;durP2;ratioP2;P2;SDS_P1;SDS_P2;PMS_P1;PMS_P2;Temp;Humidity;BMP_temperature;BMP_pressure;BME280_temperature;BME280_humidity;BME280_pressure;Samples;Min_cycle;Max_cycle;Signal;HPM_P1;HPM_P2
2024/03/18 00:01:39;;;;;;;19.67;13.73;;;;;;;;;;6148656;28;20043;-80
2024/03/18 00:04:43;;;;;;;20.17;13.77;;;;;;;;;;6150539;28;20086;-80
2024/03/18 00:07:45;;;;;;;16.48;10.82;;;;;;;;;;6141398;28;20046;-80
2024/03/18 00:10:46;;;;;;;19.60;12.98;;;;;;;;;;6153868;28;20655;-80
2024/03/18 00:13:47;;;;;;;24.00;12.45;;;;;;;;;;6148096;28;20046;-81
2024/03/18 00:16:48;;;;;;;20.70;13.40;;;;;;;;;;6166171;28;20047;-80
2024/03/18 00:19:50;;;;;;;18.00;11.38;;;;;;;;;;6147639;28;20058;-80
2024/03/18 00:22:50;;;;;;;20.17;12.50;;;;;;;;;;6162721;28;20043;-80
2024/03/18 00:25:52;;;;;;;16.60;11.40;;;;;;;;;;6146761;28;20066;-80
2024/03/18 00:28:53;;;;;;;18.30;12.18;;;;;;;;;;6143766;28;20054;-80
2024/03/18 00:31:55;;;;;;;20.00;13.38;;;;;;;;;;6135938;28;20042;-80
2024/03/18 00:34:57;;;;;;;21.13;12.02;;;;;;;;;;6145127;28;20061;-80
2024/03/18 00:37:59;;;;;;;17.52;12.18;;;;;;;;;;6158438;28;20058;-81
2024/03/18 00:44:23;;;;;;;17.02;11.43;;;;;;;;;;6158753;28;20047;-81
2024/03/18 00:47:24;;;;;;;15.88;10.45;;;;;;;;;;6156498;28;20042;-81
2024/03/18 00:50:26;;;;;;;16.30;10.88;;;;;;;;;;6160147;28;20690;-81
2024/03/18 00:53:28;;;;;;;17.20;10.18;;;;;;;;;;6145745;28;20101;-81
2024/03/18 00:56:29;;;;;;;15.32;9.77;;;;;;;;;;6147259;28;20047;-81
2024/03/18 00:59:30;;;;;;;12.20;8.75;;;;;;;;;;6159331;28;20591;-81
2024/03/18 01:02:33;;;;;;;16.15;10.10;;;;;;;;;;6128207;28;20038;-81
2024/03/18 01:05:37;;;;;;;12.68;8.15;;;;;;;;;;6159212;28;20047;-80
2024/03/18 01:08:38;;;;;;;13.23;8.98;;;;;;;;;;6160923;28;20159;-80
2024/03/18 01:11:39;;;;;;;17.65;11.38;;;;;;;;;;6128671;28;20046;-79
2024/03/18 01:14:40;;;;;;;17.58;10.48;;;;;;;;;;6121771;28;20073;-79
2024/03/18 01:17:46;;;;;;;18.45;10.73;;;;;;;;;;6176889;28;20050;-80
2024/03/18 01:20:48;;;;;;;18.08;10.55;;;;;;;;;;6144358;28;20047;-80
2024/03/18 01:23:50;;;;;;;16.88;11.02;;;;;;;;;;6164955;28;20054;-80
2024/03/18 01:26:52;;;;;;;15.95;9.27;;;;;;;;;;6143921;28;20054;-81
2024/03/18 01:29:55;;;;;;;16.15;9.18;;;;;;;;;;6157405;28;20051;-80
2024/03/18 01:32:57;;;;;;;14.02;9.68;;;;;;;;;;6146161;28;20441;-80
2024/03/18 01:35:59;;;;;;;19.05;9.60;;;;;;;;;;6125803;28;20078;-80
2024/03/18 01:39:02;;;;;;;17.95;10.57;;;;;;;;;;6106389;28;20047;-80
2024/03/18 01:42:03;;;;;;;17.83;11.27;;;;;;;;;;6105513;29;20051;-80
2024/03/18 01:45:05;;;;;;;18.20;11.23;;;;;;;;;;6124026;28;20046;-80
2024/03/18 01:48:07;;;;;;;19.55;12.13;;;;;;;;;;6108645;29;20055;-78
2024/03/18 01:51:09;;;;;;;20.30;11.77;;;;;;;;;;6116721;28;20541;-79
2024/03/18 01:54:10;;;;;;;16.67;10.73;;;;;;;;;;6120011;28;20310;-79
2024/03/18 01:57:11;;;;;;;23.27;12.40;;;;;;;;;;6121207;28;20199;-79
2024/03/18 02:00:23;;;;;;;30.02;12.55;;;;;;;;;;6118282;28;20063;-79
2024/03/18 02:03:24;;;;;;;24.08;13.65;;;;;;;;;;6110915;28;20050;-80
2024/03/18 02:06:25;;;;;;;24.60;13.45;;;;;;;;;;6105195;28;20113;-79
2024/03/18 02:09:28;;;;;;;22.30;13.50;;;;;;;;;;6107779;28;20102;-80
2024/03/18 02:12:32;;;;;;;26.13;12.05;;;;;;;;;;6103621;28;20484;-80
2024/03/18 02:15:35;;;;;;;26.23;13.77;;;;;;;;;;6098209;28;20047;-80
2024/03/18 02:18:36;;;;;;;37.00;15.95;;;;;;;;;;6118492;28;20056;-80
2024/03/18 02:21:38;;;;;;;33.38;15.60;;;;;;;;;;6124744;29;20117;-80
2024/03/18 02:24:40;;;;;;;29.20;15.10;;;;;;;;;;6115840;28;20505;-80
2024/03/18 02:27:44;;;;;;;46.85;16.42;;;;;;;;;;6120821;28;20052;-81
2024/03/18 02:30:45;;;;;;;34.92;15.25;;;;;;;;;;6103701;28;20055;-80
2024/03/18 02:33:47;;;;;;;49.30;15.80;;;;;;;;;;6113539;29;20047;-79
2024/03/18 02:36:52;;;;;;;56.53;16.40;;;;;;;;;;6103613;28;20055;-80
2024/03/18 02:39:53;;;;;;;45.80;13.68;;;;;;;;;;6157331;28;20055;-80
2024/03/18 02:42:54;;;;;;;36.28;14.80;;;;;;;;;;6124822;28;20189;-79
2024/03/18 02:45:55;;;;;;;54.80;15.15;;;;;;;;;;6143613;28;20055;-80
2024/03/18 02:48:58;;;;;;;39.90;13.57;;;;;;;;;;6111703;28;20066;-81
2024/03/18 02:51:59;;;;;;;52.60;16.67;;;;;;;;;;6137716;28;20425;-81
2024/03/18 02:55:02;;;;;;;59.25;15.60;;;;;;;;;;6159117;28;20043;-81
2024/03/18 02:58:09;;;;;;;68.05;14.85;;;;;;;;;;6145679;28;20767;-79
2024/03/18 03:01:10;;;;;;;57.47;14.88;;;;;;;;;;6157771;28;20043;-79
2024/03/18 03:04:12;;;;;;;50.53;15.63;;;;;;;;;;6142279;28;20059;-81
2024/03/18 03:07:14;;;;;;;44.53;16.58;;;;;;;;;;6155254;28;20719;-81
2024/03/18 03:10:19;;;;;;;39.65;15.93;;;;;;;;;;6141083;28;20051;-81
2024/03/18 03:13:20;;;;;;;46.13;17.00;;;;;;;;;;6130428;28;20050;-80
2024/03/18 03:16:22;;;;;;;44.85;15.80;;;;;;;;;;6157186;28;20047;-80
2024/03/18 03:19:24;;;;;;;48.00;16.35;;;;;;;;;;6152618;28;20768;-80
2024/03/18 03:22:26;;;;;;;40.45;16.45;;;;;;;;;;6142717;28;20113;-80
2024/03/18 03:25:27;;;;;;;28.92;15.38;;;;;;;;;;6133898;28;20058;-80
2024/03/18 03:28:29;;;;;;;42.05;14.75;;;;;;;;;;6144455;28;20051;-81
2024/03/18 03:31:30;;;;;;;28.08;13.77;;;;;;;;;;6144996;28;20802;-80
2024/03/18 03:34:31;;;;;;;29.13;14.23;;;;;;;;;;6162596;28;20042;-81
2024/03/18 03:37:35;;;;;;;36.40;15.07;;;;;;;;;;6147156;28;20716;-81
2024/03/18 03:40:36;;;;;;;30.25;13.38;;;;;;;;;;6144338;28;20047;-81
2024/03/18 03:43:37;;;;;;;35.72;15.32;;;;;;;;;;6131356;28;20055;-81
2024/03/18 03:46:39;;;;;;;37.75;15.60;;;;;;;;;;6176084;28;20524;-81
2024/03/18 03:49:40;;;;;;;57.45;22.52;;;;;;;;;;6133352;28;20047;-81
2024/03/18 03:52:42;;;;;;;136.95;53.75;;;;;;;;;;6162480;28;20043;-80
2024/03/18 03:55:44;;;;;;;93.40;32.67;;;;;;;;;;6163403;28;20447;-80
2024/03/18 03:58:50;;;;;;;79.60;27.83;;;;;;;;;;6161056;28;20052;-80
2024/03/18 04:01:54;;;;;;;75.53;27.33;;;;;;;;;;6147003;28;20515;-80
2024/03/18 04:04:56;;;;;;;58.58;15.90;;;;;;;;;;6154920;28;20058;-80
2024/03/18 04:07:57;;;;;;;72.38;20.38;;;;;;;;;;6148101;28;20595;-80
2024/03/18 04:10:58;;;;;;;58.65;20.05;;;;;;;;;;6149492;28;20038;-81
2024/03/18 04:14:01;;;;;;;45.38;18.10;;;;;;;;;;6149293;28;20054;-80
2024/03/18 04:17:10;;;;;;;53.33;19.52;;;;;;;;;;6180382;28;20050;-80
2024/03/18 04:20:21;;;;;;;52.60;17.75;;;;;;;;;;6141358;28;20047;-80
2024/03/18 04:23:23;;;;;;;55.50;23.77;;;;;;;;;;6160055;28;20101;-80
2024/03/18 04:26:25;;;;;;;63.17;26.60;;;;;;;;;;6147363;28;20046;-80
2024/03/18 04:29:26;;;;;;;44.95;19.20;;;;;;;;;;6158071;28;20034;-81
2024/03/18 04:32:28;;;;;;;39.80;18.50;;;;;;;;;;6156337;28;20047;-80
2024/03/18 04:35:29;;;;;;;47.15;17.20;;;;;;;;;;6144139;28;20120;-81
2024/03/18 04:38:30;;;;;;;36.55;15.48;;;;;;;;;;6143693;28;20760;-80
2024/03/18 04:41:33;;;;;;;30.92;14.90;;;;;;;;;;6156452;28;20043;-80
2024/03/18 04:44:34;;;;;;;31.35;14.70;;;;;;;;;;6142979;28;20049;-79
2024/03/18 04:47:39;;;;;;;43.90;16.05;;;;;;;;;;6146902;28;20684;-79
2024/03/18 04:50:41;;;;;;;38.05;14.95;;;;;;;;;;6129754;28;20085;-80
2024/03/18 04:53:48;;;;;;;38.58;13.77;;;;;;;;;;6161395;28;20050;-81
2024/03/18 04:57:00;;;;;;;38.90;14.90;;;;;;;;;;6142096;28;20051;-80
2024/03/18 05:00:05;;;;;;;33.00;14.50;;;;;;;;;;6148708;28;20101;-78
2024/03/18 05:03:11;;;;;;;42.70;16.88;;;;;;;;;;6172326;28;20053;-80
2024/03/18 05:06:14;;;;;;;40.88;14.10;;;;;;;;;;6148663;28;20062;-83
2024/03/18 05:09:20;;;;;;;42.97;17.80;;;;;;;;;;6156605;28;20046;-80
2024/03/18 05:12:21;;;;;;;51.70;18.83;;;;;;;;;;6152375;28;20039;-81
2024/03/18 05:15:23;;;;;;;38.08;16.13;;;;;;;;;;6151891;28;20077;-79
2024/03/18 05:18:24;;;;;;;31.75;14.63;;;;;;;;;;6197522;28;20047;-79
2024/03/18 05:21:26;;;;;;;28.75;12.95;;;;;;;;;;6152327;28;20043;-81
2024/03/18 05:24:28;;;;;;;23.27;12.90;;;;;;;;;;6128934;28;20378;-80
2024/03/18 05:27:29;;;;;;;38.42;19.52;;;;;;;;;;6158095;28;20060;-81
2024/03/18 05:30:32;;;;;;;28.55;13.10;;;;;;;;;;6154005;28;20046;-81
2024/03/18 05:33:33;;;;;;;39.05;16.85;;;;;;;;;;6169372;28;20050;-81
2024/03/18 05:36:35;;;;;;;33.42;14.90;;;;;;;;;;6146057;28;20050;-81
2024/03/18 05:39:38;;;;;;;32.95;14.10;;;;;;;;;;6175972;28;20050;-79
2024/03/18 05:42:39;;;;;;;29.83;14.63;;;;;;;;;;6143167;28;20046;-79
2024/03/18 05:45:42;;;;;;;31.50;15.32;;;;;;;;;;6160978;28;20123;-80
2024/03/18 05:48:46;;;;;;;34.60;16.52;;;;;;;;;;6160251;28;20493;-79
2024/03/18 05:51:48;;;;;;;31.73;16.27;;;;;;;;;;6145032;28;20058;-81
2024/03/18 05:54:50;;;;;;;53.08;28.33;;;;;;;;;;6157859;28;20054;-79
2024/03/18 05:57:51;;;;;;;44.00;17.77;;;;;;;;;;6145304;28;20054;-79
2024/03/18 06:00:52;;;;;;;59.25;18.10;;;;;;;;;;6147599;28;20043;-80
2024/03/18 06:03:53;;;;;;;46.28;18.10;;;;;;;;;;6145520;28;20459;-79
2024/03/18 06:06:55;;;;;;;40.88;15.05;;;;;;;;;;6149344;28;20039;-80
2024/03/18 06:09:57;;;;;;;41.83;16.40;;;;;;;;;;6180293;28;20097;-79
2024/03/18 06:12:59;;;;;;;36.75;16.02;;;;;;;;;;6160950;28;20069;-79
2024/03/18 06:16:03;;;;;;;31.42;15.73;;;;;;;;;;6147144;28;20062;-80
2024/03/18 06:19:06;;;;;;;43.83;17.65;;;;;;;;;;6149099;28;20046;-79
2024/03/18 06:22:20;;;;;;;25.00;13.05;;;;;;;;;;6158869;28;20065;-79
2024/03/18 06:28:43;;;;;;;40.08;14.70;;;;;;;;;;6162242;28;20066;-79
2024/03/18 06:31:44;;;;;;;37.10;14.23;;;;;;;;;;6115265;28;20051;-80
2024/03/18 06:34:45;;;;;;;36.08;14.60;;;;;;;;;;6132736;28;20541;-80
2024/03/18 06:37:46;;;;;;;44.47;15.30;;;;;;;;;;6182018;28;20038;-82
2024/03/18 06:40:51;;;;;;;31.60;15.60;;;;;;;;;;6179851;28;20061;-80
2024/03/18 06:43:54;;;;;;;40.20;17.05;;;;;;;;;;6141102;28;20057;-81
2024/03/18 06:46:56;;;;;;;29.20;15.43;;;;;;;;;;6146491;28;20055;-81
2024/03/18 06:49:57;;;;;;;35.78;18.17;;;;;;;;;;6130995;28;20054;-81
2024/03/18 06:52:59;;;;;;;35.00;16.52;;;;;;;;;;6125615;28;20043;-80
2024/03/18 06:56:04;;;;;;;35.35;17.05;;;;;;;;;;6143501;28;20112;-81
2024/03/18 06:59:05;;;;;;;34.60;17.38;;;;;;;;;;6142576;28;20047;-81
2024/03/18 07:02:07;;;;;;;32.30;15.23;;;;;;;;;;6161343;28;20050;-80
2024/03/18 07:05:12;;;;;;;29.52;15.73;;;;;;;;;;6163189;28;20047;-79
2024/03/18 07:08:17;;;;;;;42.92;17.65;;;;;;;;;;6163407;28;20637;-81
2024/03/18 07:11:18;;;;;;;38.67;19.60;;;;;;;;;;6162152;28;20058;-81
2024/03/18 07:14:19;;;;;;;33.13;17.67;;;;;;;;;;6146912;28;20100;-80
2024/03/18 07:17:20;;;;;;;25.38;14.85;;;;;;;;;;6144200;28;20200;-80
2024/03/18 07:20:22;;;;;;;26.92;16.00;;;;;;;;;;6147124;28;20050;-81
2024/03/18 07:23:24;;;;;;;28.98;14.70;;;;;;;;;;6163382;28;20038;-81
2024/03/18 07:26:26;;;;;;;23.58;14.02;;;;;;;;;;6143986;28;20050;-81
2024/03/18 07:29:28;;;;;;;33.65;17.98;;;;;;;;;;6149730;28;20049;-81
2024/03/18 07:32:29;;;;;;;30.42;15.93;;;;;;;;;;6134088;28;20054;-81
2024/03/18 07:35:31;;;;;;;33.70;15.13;;;;;;;;;;6145504;28;20592;-82
2024/03/18 07:38:32;;;;;;;28.73;16.75;;;;;;;;;;6142162;28;20472;-81
2024/03/18 07:41:35;;;;;;;39.80;22.90;;;;;;;;;;6146345;28;20047;-81
2024/03/18 07:44:36;;;;;;;32.55;16.00;;;;;;;;;;6129209;28;20058;-80
2024/03/18 07:47:43;;;;;;;33.85;17.38;;;;;;;;;;6160909;28;20568;-80
2024/03/18 07:50:45;;;;;;;31.63;17.50;;;;;;;;;;6159465;28;20058;-80
2024/03/18 07:53:47;;;;;;;33.50;17.13;;;;;;;;;;6155015;28;20050;-81
2024/03/18 07:56:50;;;;;;;31.95;18.58;;;;;;;;;;6128403;28;20491;-81
2024/03/18 07:59:52;;;;;;;59.30;41.22;;;;;;;;;;6161311;28;20046;-80
2024/03/18 08:02:53;;;;;;;54.60;35.22;;;;;;;;;;6142828;28;20046;-80
2024/03/18 08:05:54;;;;;;;28.33;14.95;;;;;;;;;;6144863;28;20071;-81
2024/03/18 08:08:57;;;;;;;29.92;16.55;;;;;;;;;;6145966;28;20047;-81
2024/03/18 08:11:58;;;;;;;31.52;18.17;;;;;;;;;;6162627;28;20542;-80
2024/03/18 08:14:59;;;;;;;28.10;16.27;;;;;;;;;;6146230;28;20054;-80
2024/03/18 08:18:01;;;;;;;32.08;15.38;;;;;;;;;;6136626;28;20540;-80
2024/03/18 08:21:03;;;;;;;27.65;15.52;;;;;;;;;;6160400;28;20061;-81
2024/03/18 08:24:05;;;;;;;25.00;13.55;;;;;;;;;;6162660;28;20071;-80
2024/03/18 08:27:08;;;;;;;30.73;16.70;;;;;;;;;;6127249;28;20055;-82
2024/03/18 08:30:11;;;;;;;28.23;14.48;;;;;;;;;;6142415;28;20043;-80
2024/03/18 08:33:12;;;;;;;23.98;13.40;;;;;;;;;;6162931;28;20509;-80
2024/03/18 08:36:15;;;;;;;23.55;13.05;;;;;;;;;;6141907;28;20051;-81
2024/03/18 08:39:16;;;;;;;21.13;12.90;;;;;;;;;;6104757;28;20054;-81
2024/03/18 08:42:21;;;;;;;26.70;13.75;;;;;;;;;;6146057;28;20042;-80
2024/03/18 08:45:22;;;;;;;20.33;10.50;;;;;;;;;;6128895;28;20055;-81
2024/03/18 08:48:27;;;;;;;20.27;10.90;;;;;;;;;;6128740;28;20124;-80
2024/03/18 08:51:28;;;;;;;25.00;12.05;;;;;;;;;;6147721;28;20035;-81
2024/03/18 08:54:30;;;;;;;16.45;8.73;;;;;;;;;;6111099;28;20512;-81
2024/03/18 08:57:32;;;;;;;13.43;7.57;;;;;;;;;;6135304;28;20066;-81
2024/03/18 09:00:33;;;;;;;13.55;8.27;;;;;;;;;;6143365;28;20053;-82
2024/03/18 09:03:35;;;;;;;9.05;4.95;;;;;;;;;;6171856;28;20090;-81
2024/03/18 09:06:37;;;;;;;10.18;6.70;;;;;;;;;;6152544;28;20697;-80
2024/03/18 09:09:41;;;;;;;9.93;5.75;;;;;;;;;;6150864;28;20053;-81
2024/03/18 09:12:43;;;;;;;12.23;6.25;;;;;;;;;;6112881;28;20101;-80
2024/03/18 09:15:46;;;;;;;9.48;4.80;;;;;;;;;;6143139;28;20999;-82
2024/03/18 09:18:47;;;;;;;7.53;3.65;;;;;;;;;;6130365;28;20830;-81
2024/03/18 09:21:50;;;;;;;5.28;3.33;;;;;;;;;;6126903;28;20440;-81
2024/03/18 09:24:51;;;;;;;6.00;3.20;;;;;;;;;;6126067;28;20133;-82
2024/03/18 09:27:52;;;;;;;6.32;3.17;;;;;;;;;;6116890;28;20051;-82
2024/03/18 09:31:01;;;;;;;6.18;3.72;;;;;;;;;;6131813;28;20054;-81
2024/03/18 09:34:02;;;;;;;6.63;5.05;;;;;;;;;;6143031;28;20771;-81
2024/03/18 09:37:03;;;;;;;3.03;1.80;;;;;;;;;;6113015;28;20062;-82
2024/03/18 09:40:06;;;;;;;8.35;4.18;;;;;;;;;;6144540;28;20109;-82
2024/03/18 09:43:10;;;;;;;8.25;4.53;;;;;;;;;;6176208;28;20528;-82
2024/03/18 09:46:16;;;;;;;10.13;5.78;;;;;;;;;;6157542;28;20038;-81
2024/03/18 09:49:22;;;;;;;7.38;2.97;;;;;;;;;;6174657;28;20047;-82
2024/03/18 09:52:36;;;;;;;4.72;2.13;;;;;;;;;;6139484;28;20054;-81
2024/03/18 09:55:39;;;;;;;3.72;1.77;;;;;;;;;;6158194;28;20042;-82
2024/03/18 09:58:40;;;;;;;4.03;2.00;;;;;;;;;;6127794;28;20047;-82
2024/03/18 10:01:41;;;;;;;4.40;2.55;;;;;;;;;;6138286;28;20042;-82
2024/03/18 10:04:44;;;;;;;3.50;2.03;;;;;;;;;;6143981;28;20055;-81
2024/03/18 10:07:46;;;;;;;6.72;2.60;;;;;;;;;;6144623;28;20050;-83
2024/03/18 10:10:51;;;;;;;3.97;2.17;;;;;;;;;;6140447;28;20089;-82
2024/03/18 10:13:52;;;;;;;5.60;2.53;;;;;;;;;;6142497;28;20062;-82
2024/03/18 10:16:56;;;;;;;3.80;1.58;;;;;;;;;;6160683;28;20053;-81
2024/03/18 10:19:57;;;;;;;3.97;2.40;;;;;;;;;;6152588;28;20062;-80
2024/03/18 10:22:59;;;;;;;4.13;2.25;;;;;;;;;;6130198;28;20046;-80
2024/03/18 10:26:01;;;;;;;4.05;3.08;;;;;;;;;;6168580;28;20046;-80
2024/03/18 10:29:03;;;;;;;4.47;2.25;;;;;;;;;;6138187;28;20047;-80
2024/03/18 10:32:12;;;;;;;5.97;2.70;;;;;;;;;;6135665;28;20512;-81
2024/03/18 10:35:23;;;;;;;3.55;1.83;;;;;;;;;;6168867;28;20046;-81
2024/03/18 10:38:25;;;;;;;3.30;1.08;;;;;;;;;;6137984;28;20050;-82
2024/03/18 10:41:30;;;;;;;2.75;1.25;;;;;;;;;;6125824;28;20050;-82
2024/03/18 10:44:38;;;;;;;3.70;2.60;;;;;;;;;;6163716;28;20047;-82
2024/03/18 10:47:45;;;;;;;2.53;1.13;;;;;;;;;;6173185;28;20433;-82
2024/03/18 10:50:48;;;;;;;3.00;1.27;;;;;;;;;;6159504;28;20054;-81
2024/03/18 10:53:50;;;;;;;2.58;1.77;;;;;;;;;;6158850;28;20101;-81
2024/03/18 10:56:54;;;;;;;2.17;0.93;;;;;;;;;;6136372;28;20061;-82
2024/03/18 10:59:55;;;;;;;2.75;1.65;;;;;;;;;;6167008;28;20095;-82
2024/03/18 11:02:58;;;;;;;3.17;1.80;;;;;;;;;;6145800;28;20035;-83
2024/03/18 11:06:01;;;;;;;2.53;1.27;;;;;;;;;;6150443;28;20053;-83
2024/03/18 11:09:02;;;;;;;4.32;1.92;;;;;;;;;;6173545;28;20043;-82
2024/03/18 11:12:30;;;;;;;3.17;1.85;;;;;;;;;;6169582;28;20058;-81
2024/03/18 11:15:31;;;;;;;2.38;1.23;;;;;;;;;;6153382;28;20065;-83
2024/03/18 11:18:37;;;;;;;4.13;1.35;;;;;;;;;;6157020;28;20114;-81
2024/03/18 11:21:39;;;;;;;2.65;2.13;;;;;;;;;;6168910;28;20491;-81
2024/03/18 11:24:41;;;;;;;1.98;0.85;;;;;;;;;;6153354;28;20058;-82
2024/03/18 11:27:49;;;;;;;2.42;1.33;;;;;;;;;;6167962;28;20039;-82
2024/03/18 11:30:53;;;;;;;3.25;1.70;;;;;;;;;;6151675;28;20054;-81
2024/03/18 11:33:54;;;;;;;2.38;0.95;;;;;;;;;;6157122;28;20047;-82
2024/03/18 11:36:55;;;;;;;2.30;1.13;;;;;;;;;;6164693;28;20050;-82
2024/03/18 11:39:57;;;;;;;5.43;1.98;;;;;;;;;;6165456;28;20055;-84
2024/03/18 11:43:05;;;;;;;2.10;1.33;;;;;;;;;;6165412;28;20075;-82
2024/03/18 11:46:15;;;;;;;2.17;1.27;;;;;;;;;;6164691;28;20077;-81
2024/03/18 11:49:21;;;;;;;3.58;2.50;;;;;;;;;;6168482;28;20122;-82
2024/03/18 11:52:24;;;;;;;3.58;1.48;;;;;;;;;;6191495;28;20038;-83
2024/03/18 11:55:27;;;;;;;3.13;1.52;;;;;;;;;;6183026;28;20523;-82
2024/03/18 11:58:28;;;;;;;3.33;1.58;;;;;;;;;;6168726;28;20121;-82
2024/03/18 12:01:30;;;;;;;3.08;1.55;;;;;;;;;;6142849;28;20050;-81
2024/03/18 12:04:33;;;;;;;4.35;1.77;;;;;;;;;;6145975;28;20051;-81
2024/03/18 12:07:34;;;;;;;2.75;1.27;;;;;;;;;;6129351;28;20046;-83
2024/03/18 12:10:36;;;;;;;3.90;1.30;;;;;;;;;;6132367;28;20043;-81
2024/03/18 12:13:37;;;;;;;3.53;1.38;;;;;;;;;;6129590;28;20050;-81
2024/03/18 12:16:42;;;;;;;4.13;2.35;;;;;;;;;;6129205;28;20051;-82
2024/03/18 12:19:54;;;;;;;3.95;1.58;;;;;;;;;;6145958;28;20046;-82
2024/03/18 12:23:02;;;;;;;2.35;1.27;;;;;;;;;;6157169;28;20042;-81
2024/03/18 12:29:35;;;;;;;3.13;1.58;;;;;;;;;;6087458;28;20046;-82
2024/03/18 12:32:36;;;;;;;5.60;2.72;;;;;;;;;;6150107;28;20042;-81
2024/03/18 12:35:38;;;;;;;2.55;1.58;;;;;;;;;;6148158;28;20113;-83
2024/03/18 12:38:42;;;;;;;3.63;2.15;;;;;;;;;;6145178;28;20646;-82
2024/03/18 12:41:44;;;;;;;5.70;2.60;;;;;;;;;;6162659;28;20046;-81
2024/03/18 12:44:46;;;;;;;3.28;1.52;;;;;;;;;;6142217;28;20097;-81
2024/03/18 12:47:48;;;;;;;2.80;1.50;;;;;;;;;;6143163;28;20061;-82
2024/03/18 12:50:49;;;;;;;2.63;1.38;;;;;;;;;;6151617;28;20046;-82
2024/03/18 12:53:51;;;;;;;3.92;2.67;;;;;;;;;;6127512;28;20819;-82
2024/03/18 12:56:53;;;;;;;4.22;2.05;;;;;;;;;;6145314;28;20492;-82
2024/03/18 12:59:54;;;;;;;2.65;1.17;;;;;;;;;;6146908;28;20055;-82
2024/03/18 13:02:56;;;;;;;5.78;2.55;;;;;;;;;;6130502;28;20047;-81
2024/03/18 13:05:59;;;;;;;3.30;1.35;;;;;;;;;;6143352;28;20477;-81
2024/03/18 13:09:04;;;;;;;3.30;3.00;;;;;;;;;;6143438;28;20046;-80
2024/03/18 13:12:08;;;;;;;4.05;1.85;;;;;;;;;;6158184;28;20426;-81
2024/03/18 13:15:13;;;;;;;4.75;1.95;;;;;;;;;;6159246;28;20050;-81
2024/03/18 13:18:16;;;;;;;3.10;2.10;;;;;;;;;;6139381;28;20758;-81
2024/03/18 13:21:18;;;;;;;8.15;1.88;;;;;;;;;;6142838;28;20051;-80
2024/03/18 13:24:19;;;;;;;5.97;1.60;;;;;;;;;;6128502;28;20539;-80
2024/03/18 13:27:21;;;;;;;4.07;1.75;;;;;;;;;;6124487;28;20378;-81
2024/03/18 13:30:23;;;;;;;3.30;1.40;;;;;;;;;;6142488;28;20057;-81
2024/03/18 13:33:25;;;;;;;2.80;1.55;;;;;;;;;;6141414;28;20797;-81
2024/03/18 13:36:27;;;;;;;5.60;1.55;;;;;;;;;;6125773;28;20054;-81
2024/03/18 13:39:29;;;;;;;5.32;1.60;;;;;;;;;;6142619;28;20058;-81
2024/03/18 13:42:31;;;;;;;4.90;1.90;;;;;;;;;;6126965;28;20061;-81
2024/03/18 13:45:33;;;;;;;3.30;1.60;;;;;;;;;;6148784;28;20074;-81
2024/03/18 13:48:38;;;;;;;5.60;1.90;;;;;;;;;;6141298;28;20054;-81
2024/03/18 13:51:39;;;;;;;3.47;1.35;;;;;;;;;;6158924;28;20053;-81
2024/03/18 13:54:43;;;;;;;2.75;1.40;;;;;;;;;;6161613;28;20833;-81
2024/03/18 13:57:45;;;;;;;3.17;1.67;;;;;;;;;;6155276;28;20054;-81
2024/03/18 14:00:46;;;;;;;3.53;1.70;;;;;;;;;;6126561;28;20065;-81
2024/03/18 14:03:47;;;;;;;3.00;1.60;;;;;;;;;;6139660;28;20046;-80
2024/03/18 14:06:49;;;;;;;3.80;2.08;;;;;;;;;;6125752;28;20607;-80
2024/03/18 14:09:50;;;;;;;4.28;1.60;;;;;;;;;;6126408;28;20595;-80
2024/03/18 14:12:51;;;;;;;3.67;1.73;;;;;;;;;;6132427;28;20045;-81
2024/03/18 14:15:58;;;;;;;3.45;1.55;;;;;;;;;;6175401;28;20070;-82
2024/03/18 14:18:59;;;;;;;4.55;1.88;;;;;;;;;;6174781;28;20599;-80
2024/03/18 14:22:03;;;;;;;2.58;1.20;;;;;;;;;;6146737;28;20058;-82
2024/03/18 14:25:29;;;;;;;2.67;1.90;;;;;;;;;;6122657;28;20595;-82
2024/03/18 14:28:27;;;;;;;3.47;2.17;;;;;;;;;;6141350;28;20043;-82
2024/03/18 14:31:28;;;;;;;3.55;1.67;;;;;;;;;;6158076;28;20090;-81
2024/03/18 14:34:29;;;;;;;4.50;1.85;;;;;;;;;;6158557;28;20043;-82
2024/03/18 14:37:31;;;;;;;5.40;2.00;;;;;;;;;;6147473;28;20070;-81
2024/03/18 14:40:33;;;;;;;3.38;1.88;;;;;;;;;;6107379;28;20055;-82
2024/03/18 14:43:34;;;;;;;4.88;1.85;;;;;;;;;;6146707;28;20036;-82
2024/03/18 14:46:36;;;;;;;4.15;1.55;;;;;;;;;;6120230;28;20077;-82
2024/03/18 14:49:38;;;;;;;6.22;1.80;;;;;;;;;;6132976;28;20051;-80
2024/03/18 14:52:40;;;;;;;3.10;1.60;;;;;;;;;;6121031;28;20530;-81
2024/03/18 14:55:41;;;;;;;4.75;2.17;;;;;;;;;;6111934;29;20501;-82
2024/03/18 14:58:44;;;;;;;7.43;3.28;;;;;;;;;;6111787;28;20054;-81
2024/03/18 15:01:45;;;;;;;7.85;2.90;;;;;;;;;;6106696;29;20051;-81
2024/03/18 15:04:46;;;;;;;3.92;1.77;;;;;;;;;;6112221;28;20445;-80
2024/03/18 15:07:47;;;;;;;7.50;3.92;;;;;;;;;;6108787;28;20058;-82
2024/03/18 15:10:49;;;;;;;5.32;2.47;;;;;;;;;;6096808;28;20089;-80
2024/03/18 15:13:53;;;;;;;3.50;1.80;;;;;;;;;;6125232;28;20043;-81
2024/03/18 15:16:54;;;;;;;5.47;2.80;;;;;;;;;;6119535;28;20048;-81
2024/03/18 15:19:56;;;;;;;4.38;2.00;;;;;;;;;;6103310;28;20071;-82
2024/03/18 15:22:59;;;;;;;3.45;1.73;;;;;;;;;;6098010;28;20054;-80
2024/03/18 15:29:20;;;;;;;3.42;2.38;;;;;;;;;;6129174;28;20074;-80
2024/03/18 15:32:22;;;;;;;3.65;1.88;;;;;;;;;;6088204;29;20580;-81
2024/03/18 15:35:26;;;;;;;13.07;6.47;;;;;;;;;;6107094;29;20532;-81
2024/03/18 15:38:27;;;;;;;4.97;2.53;;;;;;;;;;6119806;28;20050;-81
2024/03/18 15:41:29;;;;;;;6.03;4.25;;;;;;;;;;6163714;28;20043;-80
2024/03/18 15:44:32;;;;;;;8.98;4.50;;;;;;;;;;6161397;28;20492;-81
2024/03/18 15:47:33;;;;;;;12.10;8.35;;;;;;;;;;6147876;28;20315;-82
2024/03/18 15:50:35;;;;;;;10.82;5.65;;;;;;;;;;6164212;28;20782;-82
2024/03/18 15:53:37;;;;;;;8.32;6.03;;;;;;;;;;6128830;28;20902;-82
2024/03/18 15:56:39;;;;;;;8.27;3.15;;;;;;;;;;6145563;28;20055;-82
2024/03/18 15:59:40;;;;;;;6.20;3.85;;;;;;;;;;6146600;28;20429;-83
2024/03/18 16:02:43;;;;;;;4.53;1.90;;;;;;;;;;6149246;28;20046;-82
2024/03/18 16:05:44;;;;;;;4.20;2.45;;;;;;;;;;6145883;28;20444;-83
2024/03/18 16:08:47;;;;;;;5.15;3.08;;;;;;;;;;6164369;28;20050;-82
2024/03/18 16:11:49;;;;;;;12.05;6.18;;;;;;;;;;6166552;28;20902;-82
2024/03/18 16:14:51;;;;;;;13.35;6.38;;;;;;;;;;6174527;28;20055;-82
2024/03/18 16:17:55;;;;;;;6.57;3.22;;;;;;;;;;6156372;28;20509;-81
2024/03/18 16:21:00;;;;;;;4.72;2.33;;;;;;;;;;6155331;28;20059;-82
2024/03/18 16:24:03;;;;;;;6.00;2.08;;;;;;;;;;6156158;28;20045;-83
2024/03/18 16:27:05;;;;;;;7.00;3.70;;;;;;;;;;6191686;28;20050;-81
2024/03/18 16:30:07;;;;;;;6.38;3.13;;;;;;;;;;6158998;28;20043;-81
2024/03/18 16:33:09;;;;;;;7.25;3.55;;;;;;;;;;6173509;28;20039;-82
2024/03/18 16:36:11;;;;;;;9.45;4.40;;;;;;;;;;6166213;28;20042;-81
2024/03/18 16:39:18;;;;;;;8.00;3.58;;;;;;;;;;6198270;28;20058;-81
2024/03/18 16:42:26;;;;;;;9.57;3.38;;;;;;;;;;6200481;28;20051;-80
2024/03/18 16:45:29;;;;;;;6.53;3.10;;;;;;;;;;6180034;28;20047;-80
2024/03/18 16:48:32;;;;;;;13.98;3.03;;;;;;;;;;6195828;28;20049;-81
2024/03/18 16:51:34;;;;;;;7.05;3.75;;;;;;;;;;6179371;28;20039;-80
2024/03/18 16:54:35;;;;;;;5.18;2.95;;;;;;;;;;6184273;28;20047;-81
2024/03/18 16:57:36;;;;;;;5.97;2.25;;;;;;;;;;6144689;28;20515;-81
2024/03/18 17:00:40;;;;;;;8.48;3.63;;;;;;;;;;6127151;28;20046;-81
2024/03/18 17:03:42;;;;;;;132.35;54.15;;;;;;;;;;6132618;28;20342;-81
2024/03/18 17:06:44;;;;;;;53.47;28.20;;;;;;;;;;6147478;28;20054;-81
2024/03/18 17:09:48;;;;;;;26.23;13.15;;;;;;;;;;6141563;28;20517;-80
2024/03/18 17:12:50;;;;;;;5.65;3.45;;;;;;;;;;6127249;28;20046;-82
2024/03/18 17:15:51;;;;;;;18.88;8.77;;;;;;;;;;6142513;28;20662;-82
2024/03/18 17:18:55;;;;;;;24.45;15.57;;;;;;;;;;6159932;28;20054;-81
2024/03/18 17:21:58;;;;;;;19.88;14.88;;;;;;;;;;6143859;28;20054;-81
2024/03/18 17:24:59;;;;;;;11.15;5.05;;;;;;;;;;6130475;28;20058;-80
2024/03/18 17:28:00;;;;;;;18.55;14.10;;;;;;;;;;6141296;28;20120;-82
2024/03/18 17:31:02;;;;;;;11.20;6.25;;;;;;;;;;6171730;28;20055;-82
2024/03/18 17:34:03;;;;;;;26.17;14.82;;;;;;;;;;6158990;28;20153;-82
2024/03/18 17:37:04;;;;;;;36.85;19.30;;;;;;;;;;6139913;28;20062;-82
2024/03/18 17:40:09;;;;;;;30.52;16.75;;;;;;;;;;6171702;28;20611;-81
2024/03/18 17:43:11;;;;;;;29.25;16.27;;;;;;;;;;6143996;28;20046;-81
2024/03/18 17:46:14;;;;;;;33.08;16.85;;;;;;;;;;6107724;28;20054;-82
2024/03/18 17:49:15;;;;;;;50.45;22.83;;;;;;;;;;6154263;28;20054;-82
2024/03/18 17:52:18;;;;;;;33.50;18.08;;;;;;;;;;6154787;28;20731;-81
2024/03/18 17:55:19;;;;;;;21.95;11.52;;;;;;;;;;6126576;28;20046;-81
2024/03/18 17:58:21;;;;;;;12.68;6.90;;;;;;;;;;6126790;28;20054;-81
2024/03/18 18:01:23;;;;;;;14.73;9.57;;;;;;;;;;6158278;28;20845;-81
2024/03/18 18:04:25;;;;;;;14.20;8.07;;;;;;;;;;6141762;28;20516;-82
2024/03/18 18:07:26;;;;;;;15.38;8.48;;;;;;;;;;6141051;28;20045;-81
2024/03/18 18:10:30;;;;;;;24.85;12.07;;;;;;;;;;6146497;28;20141;-81